createdAt,value
2023-01-09T00:01:38.652Z,2.74
2023-01-09T00:04:07.739Z,2.74
2023-01-09T00:06:36.840Z,2.75
2023-01-09T00:09:05.014Z,2.75
2023-01-09T00:11:33.401Z,2.73
2023-01-09T00:14:02.593Z,2.71
2023-01-09T00:16:30.998Z,2.68
2023-01-09T00:19:00.578Z,2.65
2023-01-09T00:21:28.557Z,2.64
2023-01-09T00:23:56.826Z,2.63
2023-01-09T00:26:24.822Z,2.62
2023-01-09T00:28:54.408Z,2.61
2023-01-09T00:31:22.692Z,2.61
2023-01-09T00:33:54.745Z,2.61
2023-01-09T00:36:22.818Z,2.59
2023-01-09T00:38:51.296Z,2.58
2023-01-09T00:41:22.440Z,2.57
2023-01-09T00:43:53.602Z,2.55
2023-01-09T00:46:24.461Z,2.52
2023-01-09T00:48:53.165Z,2.46
2023-01-09T00:51:21.385Z,2.42
2023-01-09T00:53:50.621Z,2.37
2023-01-09T00:56:19.701Z,2.31
2023-01-09T00:58:48.569Z,2.25
2023-01-09T01:01:16.694Z,2.20
2023-01-09T01:03:44.916Z,2.14
2023-01-09T01:06:32.759Z,2.10
2023-01-09T01:09:01.130Z,2.02
2023-01-09T01:11:34.736Z,1.98
2023-01-09T01:14:02.807Z,1.93
2023-01-09T01:16:30.878Z,1.88
2023-01-09T01:18:58.849Z,1.83
2023-01-09T01:21:26.921Z,1.80
2023-01-09T01:23:55.063Z,1.79
2023-01-09T01:26:23.095Z,1.80
2023-01-09T01:28:51.031Z,1.78
2023-01-09T01:31:19.515Z,1.79
2023-01-09T01:33:47.789Z,1.78
2023-01-09T01:36:18.132Z,1.75
2023-01-09T01:38:47.108Z,1.74
2023-01-09T01:41:29.742Z,1.75
2023-01-09T01:44:27.023Z,1.74
2023-01-09T01:46:55.768Z,1.73
2023-01-09T01:49:24.009Z,1.75
2023-01-09T01:51:54.124Z,1.75
2023-01-09T01:54:24.407Z,1.76
2023-01-09T01:56:57.322Z,1.75
2023-01-09T01:59:37.632Z,1.75
2023-01-09T02:02:06.052Z,1.74
2023-01-09T02:04:35.718Z,1.72
2023-01-09T02:07:07.625Z,1.69
2023-01-09T02:09:36.888Z,1.64
2023-01-09T02:12:26.671Z,1.59
2023-01-09T02:14:59.247Z,1.52
2023-01-09T02:17:50.809Z,1.45
2023-01-09T02:20:24.882Z,1.37
2023-01-09T02:23:12.303Z,1.31
2023-01-09T02:25:53.747Z,1.22
2023-01-09T02:28:28.604Z,1.15
2023-01-09T02:31:08.946Z,1.12
2023-01-09T02:33:41.253Z,1.10
2023-01-09T02:36:27.856Z,1.08
2023-01-09T02:38:55.871Z,1.03
2023-01-09T02:41:25.536Z,0.97
2023-01-09T02:44:23.061Z,0.93
2023-01-09T02:47:04.410Z,0.92
2023-01-09T02:49:37.321Z,0.91
2023-01-09T02:52:10.866Z,0.90
2023-01-09T02:54:42.221Z,0.88
2023-01-09T02:57:28.770Z,0.87
2023-01-09T03:00:18.181Z,0.90
2023-01-09T03:02:46.340Z,0.89
2023-01-09T03:05:17.511Z,0.90
2023-01-09T03:07:55.392Z,0.91
2023-01-09T03:10:27.886Z,0.94
2023-01-09T03:12:59.585Z,0.99
2023-01-09T03:15:30.581Z,0.99
2023-01-09T03:17:59.066Z,0.98
2023-01-09T03:20:30.340Z,0.96
2023-01-09T03:23:00.542Z,0.94
2023-01-09T03:25:30.146Z,0.91
2023-01-09T03:28:02.616Z,0.92
2023-01-09T03:30:31.917Z,0.92
2023-01-09T03:33:00.095Z,0.89
2023-01-09T03:35:28.453Z,0.85
2023-01-09T03:37:56.758Z,0.82
2023-01-09T03:40:25.328Z,0.78
2023-01-09T03:42:53.303Z,0.73
2023-01-09T03:45:21.375Z,0.71
2023-01-09T03:47:50.000Z,0.70
2023-01-09T03:50:20.177Z,0.70
2023-01-09T03:52:48.359Z,0.69
2023-01-09T03:55:16.640Z,0.70
2023-01-09T03:57:44.708Z,0.70
2023-01-09T04:00:13.402Z,0.69
2023-01-09T04:02:41.720Z,0.69
2023-01-09T04:05:10.477Z,0.72
2023-01-09T04:07:38.949Z,0.75
2023-01-09T04:10:07.631Z,0.75
2023-01-09T04:12:36.008Z,0.78
2023-01-09T04:15:05.605Z,0.82
2023-01-09T04:17:33.686Z,0.87
2023-01-09T04:20:01.667Z,0.90
2023-01-09T04:22:31.659Z,0.90
2023-01-09T04:24:59.691Z,0.92
2023-01-09T04:27:28.631Z,0.94
2023-01-09T04:29:56.867Z,0.95
2023-01-09T04:32:24.881Z,0.93
2023-01-09T04:34:55.610Z,0.92
2023-01-09T04:37:24.708Z,0.90
2023-01-09T04:39:56.224Z,0.87
2023-01-09T04:42:24.758Z,0.83
2023-01-09T04:44:54.351Z,0.82
2023-01-09T04:47:23.884Z,0.80
2023-01-09T04:49:52.356Z,0.79
2023-01-09T04:52:20.524Z,0.79
2023-01-09T04:54:48.606Z,0.81
2023-01-09T04:57:17.273Z,0.83
2023-01-09T04:59:45.445Z,0.85
2023-01-09T05:02:13.698Z,0.85
2023-01-09T05:04:42.615Z,0.83
2023-01-09T05:07:10.899Z,0.82
2023-01-09T05:09:38.961Z,0.83
2023-01-09T05:12:07.970Z,0.85
2023-01-09T05:14:36.232Z,0.86
2023-01-09T05:17:04.202Z,0.87
2023-01-09T05:19:32.181Z,0.87
2023-01-09T05:22:00.244Z,0.88
2023-01-09T05:24:28.420Z,0.89
2023-01-09T05:26:56.896Z,0.90
2023-01-09T05:29:25.183Z,0.92
2023-01-09T05:31:53.182Z,0.91
2023-01-09T05:34:21.398Z,0.90
2023-01-09T05:36:49.292Z,0.88
2023-01-09T05:39:17.368Z,0.87
2023-01-09T05:41:45.547Z,0.86
2023-01-09T05:44:13.712Z,0.84
2023-01-09T05:46:41.680Z,0.82
2023-01-09T05:49:09.880Z,0.76
2023-01-09T05:51:37.927Z,0.71
2023-01-09T05:54:07.841Z,0.67
2023-01-09T05:56:36.029Z,0.64
2023-01-09T05:59:03.991Z,0.60
2023-01-09T06:01:32.228Z,0.56
2023-01-09T06:04:00.240Z,0.52
2023-01-09T06:06:28.517Z,0.51
2023-01-09T06:08:56.691Z,0.50
2023-01-09T06:11:24.970Z,0.50
2023-01-09T06:13:53.131Z,0.51
2023-01-09T06:16:21.114Z,0.54
2023-01-09T06:18:49.377Z,0.56
2023-01-09T06:21:17.449Z,0.57
2023-01-09T06:23:45.632Z,0.60
2023-01-09T06:26:13.916Z,0.63
2023-01-09T06:28:44.491Z,0.64
2023-01-09T06:31:13.503Z,0.65
2023-01-09T06:33:41.903Z,0.65
2023-01-09T06:36:10.181Z,0.63
2023-01-09T06:38:38.186Z,0.65
2023-01-09T06:41:06.736Z,0.65
2023-01-09T06:43:35.113Z,0.65
2023-01-09T06:46:05.842Z,0.66
2023-01-09T06:48:34.448Z,0.67
2023-01-09T06:51:03.119Z,0.67
2023-01-09T06:53:31.399Z,0.70
2023-01-09T06:55:59.410Z,0.71
2023-01-09T06:58:27.651Z,0.71
2023-01-09T07:00:58.342Z,0.73
2023-01-09T07:03:26.455Z,0.78
2023-01-09T07:05:54.625Z,0.81
2023-01-09T07:08:23.411Z,0.85
2023-01-09T07:10:51.366Z,0.89
2023-01-09T07:13:19.349Z,0.94
2023-01-09T07:15:47.465Z,1.00
2023-01-09T07:18:16.750Z,1.09
2023-01-09T07:20:44.793Z,1.16
2023-01-09T07:23:13.392Z,1.23
2023-01-09T07:25:45.113Z,1.31
2023-01-09T07:28:13.210Z,1.33
2023-01-09T07:30:41.175Z,1.37
2023-01-09T07:33:09.146Z,1.43
2023-01-09T07:35:37.233Z,1.49
2023-01-09T07:38:05.393Z,1.57
2023-01-09T07:40:33.982Z,1.66
2023-01-09T07:43:02.090Z,1.73
2023-01-09T07:45:30.331Z,1.79
2023-01-09T07:47:58.917Z,1.79
2023-01-09T07:50:28.967Z,1.83
2023-01-09T07:52:57.000Z,1.91
2023-01-09T07:55:25.177Z,2.02
2023-01-09T07:57:53.654Z,2.09
2023-01-09T08:00:21.933Z,2.14
2023-01-09T08:02:53.742Z,2.19
2023-01-09T08:05:25.040Z,2.28
2023-01-09T08:07:53.117Z,2.39
2023-01-09T08:10:21.819Z,2.47
2023-01-09T08:12:50.585Z,2.59
2023-01-09T08:15:18.646Z,2.70
2023-01-09T08:17:47.240Z,2.76
2023-01-09T08:20:15.970Z,2.83
2023-01-09T08:22:45.020Z,2.88
2023-01-09T08:25:14.119Z,2.99
2023-01-09T08:27:42.429Z,3.11
2023-01-09T08:30:11.191Z,3.21
2023-01-09T08:32:40.092Z,3.25
2023-01-09T08:35:09.120Z,3.27
2023-01-09T08:37:37.244Z,3.28
2023-01-09T08:40:05.725Z,3.30
2023-01-09T08:42:52.442Z,3.36
2023-01-09T08:45:38.965Z,3.46
2023-01-09T08:48:07.416Z,3.52
2023-01-09T08:50:35.393Z,3.56
2023-01-09T08:53:03.564Z,3.58
2023-01-09T08:55:31.724Z,3.57
2023-01-09T08:57:59.859Z,3.63
2023-01-09T09:00:27.894Z,3.80
2023-01-09T09:02:57.587Z,4.05
2023-01-09T09:05:27.106Z,4.28
2023-01-09T09:07:56.106Z,4.46
2023-01-09T09:10:25.391Z,4.57
2023-01-09T09:12:54.497Z,4.71
2023-01-09T09:15:24.349Z,4.76
2023-01-09T09:18:00.761Z,4.86
2023-01-09T09:20:30.581Z,4.97
2023-01-09T09:22:59.069Z,5.04
2023-01-09T09:25:27.555Z,5.09
2023-01-09T09:27:58.489Z,5.15
2023-01-09T09:30:26.967Z,5.22
2023-01-09T09:32:55.452Z,5.32
2023-01-09T09:35:23.623Z,5.38
2023-01-09T09:37:55.203Z,5.44
2023-01-09T09:40:42.603Z,5.50
2023-01-09T09:43:44.877Z,5.52
2023-01-09T09:46:22.090Z,5.45
2023-01-09T09:48:55.561Z,5.44
2023-01-09T09:51:30.278Z,5.48
2023-01-09T09:54:04.300Z,5.63
2023-01-09T09:56:34.984Z,5.80
2023-01-09T09:59:06.072Z,5.89
2023-01-09T10:01:38.260Z,5.92
2023-01-09T10:04:10.213Z,5.96
2023-01-09T10:06:43.133Z,5.95
2023-01-09T10:09:29.520Z,5.90
2023-01-09T10:12:04.220Z,5.88
2023-01-09T10:14:32.810Z,5.89
2023-01-09T10:17:03.952Z,5.92
2023-01-09T10:19:50.662Z,5.92
2023-01-09T10:22:19.145Z,5.86
2023-01-09T10:24:53.765Z,5.84
2023-01-09T10:27:31.153Z,5.86
2023-01-09T10:30:08.499Z,5.84
2023-01-09T10:33:01.600Z,5.78
2023-01-09T10:35:47.699Z,5.83
2023-01-09T10:38:20.274Z,5.92
2023-01-09T10:40:52.955Z,5.95
2023-01-09T10:43:29.322Z,6.00
2023-01-09T10:46:00.673Z,6.12
2023-01-09T10:48:33.558Z,6.30
2023-01-09T10:51:04.295Z,6.43
2023-01-09T10:53:37.362Z,6.53
2023-01-09T10:56:13.540Z,6.56
2023-01-09T10:58:41.711Z,6.53
2023-01-09T11:01:09.990Z,6.52
2023-01-09T11:03:39.244Z,6.55
2023-01-09T11:06:21.423Z,6.60
2023-01-09T11:08:51.511Z,6.60
2023-01-09T11:11:36.685Z,6.61
2023-01-09T11:14:06.647Z,6.77
2023-01-09T11:16:34.534Z,6.98
2023-01-09T11:19:03.870Z,7.12
2023-01-09T11:21:38.167Z,7.13
2023-01-09T11:24:18.450Z,7.13
2023-01-09T11:26:47.028Z,7.13
2023-01-09T11:29:15.202Z,7.18
2023-01-09T11:31:51.165Z,7.41
2023-01-09T11:34:21.071Z,7.70
2023-01-09T11:36:49.945Z,7.93
2023-01-09T11:39:29.007Z,8.11
2023-01-09T11:41:59.316Z,8.17
2023-01-09T11:44:28.053Z,8.23
2023-01-09T11:46:56.446Z,8.26
2023-01-09T11:49:29.163Z,8.26
2023-01-09T11:52:12.428Z,8.29
2023-01-09T11:54:56.559Z,8.41
2023-01-09T11:57:25.661Z,8.60
2023-01-09T11:59:58.112Z,8.72
2023-01-09T12:02:48.969Z,8.84
2023-01-09T12:05:37.356Z,8.88
2023-01-09T12:08:07.408Z,9.00
2023-01-09T12:10:35.672Z,9.04
2023-01-09T12:13:03.632Z,9.03
2023-01-09T12:15:54.865Z,9.03
2023-01-09T12:18:45.958Z,9.01
2023-01-09T12:21:43.317Z,8.96
2023-01-09T12:24:11.390Z,8.89
2023-01-09T12:26:48.474Z,8.90
2023-01-09T12:29:31.909Z,8.94
2023-01-09T12:32:02.872Z,8.87
2023-01-09T12:34:49.566Z,8.88
2023-01-09T12:37:23.699Z,8.95
2023-01-09T12:40:07.108Z,8.96
2023-01-09T12:42:35.278Z,8.90
2023-01-09T12:45:22.441Z,8.85
2023-01-09T12:47:52.710Z,8.83
2023-01-09T12:50:27.724Z,8.81
2023-01-09T12:53:14.560Z,8.83
2023-01-09T12:55:46.628Z,8.81
2023-01-09T12:58:24.119Z,8.76
2023-01-09T13:00:54.265Z,8.77
2023-01-09T13:03:45.350Z,8.81
2023-01-09T13:06:15.780Z,8.81
2023-01-09T13:08:48.272Z,8.76
2023-01-09T13:11:22.569Z,8.72
2023-01-09T13:14:07.134Z,8.66
2023-01-09T13:16:41.899Z,8.59
2023-01-09T13:19:24.496Z,8.50
2023-01-09T13:21:53.824Z,8.40
2023-01-09T13:24:27.583Z,8.36
2023-01-09T13:26:55.752Z,8.34
2023-01-09T13:29:27.204Z,8.33
2023-01-09T13:32:15.433Z,8.35
2023-01-09T13:34:45.574Z,8.34
2023-01-09T13:37:25.012Z,8.32
2023-01-09T13:40:00.348Z,8.32
2023-01-09T13:42:46.646Z,8.31
2023-01-09T13:45:17.691Z,8.21
2023-01-09T13:47:46.184Z,8.08
2023-01-09T13:50:26.513Z,7.98
2023-01-09T13:52:56.244Z,7.90
2023-01-09T13:55:26.527Z,7.83
2023-01-09T13:58:04.059Z,7.75
2023-01-09T14:00:34.911Z,7.68
2023-01-09T14:03:33.418Z,7.61
2023-01-09T14:06:03.920Z,7.51
2023-01-09T14:08:33.221Z,7.43
2023-01-09T14:11:02.593Z,7.34
2023-01-09T14:13:32.542Z,7.25
2023-01-09T14:16:09.579Z,7.16
2023-01-09T14:18:40.956Z,7.07
2023-01-09T14:21:11.335Z,6.97
2023-01-09T14:23:52.459Z,6.89
2023-01-09T14:26:23.855Z,6.79
2023-01-09T14:28:52.408Z,6.69
2023-01-09T14:31:28.504Z,6.60
2023-01-09T14:34:23.935Z,6.48
2023-01-09T14:36:59.998Z,6.35
2023-01-09T14:39:30.797Z,6.24
2023-01-09T14:42:10.107Z,6.13
2023-01-09T14:44:47.389Z,6.02
2023-01-09T14:47:18.328Z,5.91
2023-01-09T14:49:52.895Z,5.80
2023-01-09T14:52:20.940Z,5.72
2023-01-09T14:54:50.226Z,5.64
2023-01-09T14:57:29.165Z,5.56
2023-01-09T15:00:00.120Z,5.51
2023-01-09T15:02:31.993Z,5.46
2023-01-09T15:05:06.606Z,5.43
2023-01-09T15:07:40.703Z,5.41
2023-01-09T15:10:15.076Z,5.39
2023-01-09T15:12:45.423Z,5.38
2023-01-09T15:15:15.565Z,5.36
2023-01-09T15:17:45.682Z,5.35
2023-01-09T15:20:19.791Z,5.33
2023-01-09T15:22:54.656Z,5.30
2023-01-09T15:25:33.628Z,5.28
2023-01-09T15:28:35.167Z,5.28
2023-01-09T15:31:06.887Z,5.25
2023-01-09T15:33:35.552Z,5.21
2023-01-09T15:36:07.101Z,5.16
2023-01-09T15:38:36.355Z,5.08
2023-01-09T15:41:09.540Z,5.03
2023-01-09T15:43:43.207Z,4.99
2023-01-09T15:46:12.092Z,4.94
2023-01-09T15:48:41.801Z,4.87
2023-01-09T15:51:19.618Z,4.82
2023-01-09T15:53:50.948Z,4.77
2023-01-09T15:56:24.196Z,4.73
2023-01-09T15:58:53.958Z,4.70
2023-01-09T16:01:32.369Z,4.68
2023-01-09T16:04:08.829Z,4.67
2023-01-09T16:06:47.175Z,4.68
2023-01-09T16:09:28.842Z,4.71
2023-01-09T16:11:58.239Z,4.73
2023-01-09T16:14:30.920Z,4.73
2023-01-09T16:17:01.550Z,4.74
2023-01-09T16:19:48.265Z,4.76
2023-01-09T16:22:24.847Z,4.78
2023-01-09T16:24:53.939Z,4.78
2023-01-09T16:27:26.321Z,4.79
2023-01-09T16:30:03.901Z,4.79
2023-01-09T16:32:53.843Z,4.79
2023-01-09T16:35:25.227Z,4.79
2023-01-09T16:37:54.435Z,4.79
2023-01-09T16:40:24.859Z,4.78
2023-01-09T16:43:03.892Z,4.75
2023-01-09T16:45:32.397Z,4.73
2023-01-09T16:48:09.962Z,4.71
2023-01-09T16:50:38.237Z,4.70
2023-01-09T16:53:16.958Z,4.70
2023-01-09T16:55:46.461Z,4.69
2023-01-09T16:58:28.975Z,4.67
2023-01-09T17:00:58.634Z,4.63
2023-01-09T17:03:27.778Z,4.59
2023-01-09T17:05:56.955Z,4.55
2023-01-09T17:08:26.528Z,4.49
2023-01-09T17:10:55.893Z,4.43
2023-01-09T17:13:24.904Z,4.36
2023-01-09T17:15:54.187Z,4.29
2023-01-09T17:18:23.504Z,4.21
2023-01-09T17:20:53.521Z,4.14
2023-01-09T17:23:22.620Z,4.09
2023-01-09T17:26:13.091Z,4.04
2023-01-09T17:28:44.145Z,3.99
2023-01-09T17:31:13.114Z,3.96
2023-01-09T17:33:41.519Z,3.94
2023-01-09T17:36:20.955Z,3.91
2023-01-09T17:38:54.916Z,3.90
2023-01-09T17:41:23.965Z,3.88
2023-01-09T17:43:52.868Z,3.88
2023-01-09T17:46:29.617Z,3.86
2023-01-09T17:49:00.355Z,3.84
2023-01-09T17:51:30.988Z,3.82
2023-01-09T17:53:59.476Z,3.79
2023-01-09T17:56:29.499Z,3.77
2023-01-09T17:58:58.682Z,3.72
2023-01-09T18:01:27.018Z,3.66
2023-01-09T18:03:55.449Z,3.60
2023-01-09T18:06:23.555Z,3.55
2023-01-09T18:08:51.910Z,3.50
2023-01-09T18:11:21.089Z,3.46
2023-01-09T18:13:50.490Z,3.42
2023-01-09T18:16:20.060Z,3.37
2023-01-09T18:18:49.916Z,3.32
2023-01-09T18:21:19.953Z,3.26
2023-01-09T18:23:52.171Z,3.21
2023-01-09T18:26:21.475Z,3.15
2023-01-09T18:28:52.327Z,3.11
2023-01-09T18:31:24.658Z,3.05
2023-01-09T18:33:54.739Z,3.01
2023-01-09T18:36:24.925Z,2.97
2023-01-09T18:38:53.712Z,2.94
2023-01-09T18:41:22.198Z,2.92
2023-01-09T18:43:52.055Z,2.90
2023-01-09T18:46:24.264Z,2.88
2023-01-09T18:48:55.948Z,2.86
2023-01-09T18:51:25.580Z,2.85
2023-01-09T18:53:55.132Z,2.85
2023-01-09T18:56:25.849Z,2.84
2023-01-09T18:58:56.774Z,2.84
2023-01-09T19:01:25.368Z,2.85
2023-01-09T19:03:53.971Z,2.86
2023-01-09T19:06:22.942Z,2.88
2023-01-09T19:08:51.081Z,2.89
2023-01-09T19:11:19.080Z,2.90
2023-01-09T19:13:47.435Z,2.91
2023-01-09T19:16:15.400Z,2.91
2023-01-09T19:18:46.167Z,2.90
2023-01-09T19:21:15.938Z,2.88
2023-01-09T19:23:44.674Z,2.86
2023-01-09T19:26:20.768Z,2.84
2023-01-09T19:28:50.286Z,2.81
2023-01-09T19:31:18.641Z,2.77
2023-01-09T19:33:46.648Z,2.73
2023-01-09T19:36:14.757Z,2.69
2023-01-09T19:38:43.768Z,2.63
2023-01-09T19:41:18.375Z,2.58
2023-01-09T19:43:47.364Z,2.54
2023-01-09T19:46:16.844Z,2.50
2023-01-09T19:48:45.278Z,2.47
2023-01-09T19:51:16.147Z,2.45
2023-01-09T19:53:44.898Z,2.43
2023-01-09T19:56:14.247Z,2.43
2023-01-09T19:58:43.343Z,2.43
2023-01-09T20:01:15.529Z,2.44
2023-01-09T20:03:45.046Z,2.48
2023-01-09T20:06:17.545Z,2.50
2023-01-09T20:08:47.580Z,2.53
2023-01-09T20:11:16.535Z,2.57
2023-01-09T20:13:44.613Z,2.60
2023-01-09T20:16:17.508Z,2.64
2023-01-09T20:18:46.349Z,2.67
2023-01-09T20:21:18.820Z,2.71
2023-01-09T20:23:46.806Z,2.74
2023-01-09T20:26:16.336Z,2.76
2023-01-09T20:28:44.975Z,2.77
2023-01-09T20:31:16.386Z,2.75
2023-01-09T20:33:46.304Z,2.73
2023-01-09T20:36:14.827Z,2.71
2023-01-09T20:38:43.768Z,2.67
2023-01-09T20:41:22.912Z,2.64
2023-01-09T20:43:57.135Z,2.60
2023-01-09T20:46:27.153Z,2.54
2023-01-09T20:48:56.283Z,2.49
2023-01-09T20:51:24.716Z,2.44
2023-01-09T20:53:56.362Z,2.37
2023-01-09T20:56:27.770Z,2.28
2023-01-09T20:58:57.355Z,2.19
2023-01-09T21:01:25.717Z,2.11
2023-01-09T21:03:54.307Z,2.03
2023-01-09T21:06:24.127Z,1.96
2023-01-09T21:08:53.209Z,1.88
2023-01-09T21:11:22.223Z,1.81
2023-01-09T21:13:50.356Z,1.74
2023-01-09T21:16:21.639Z,1.66
2023-01-09T21:18:50.646Z,1.59
2023-01-09T21:21:21.705Z,1.52
2023-01-09T21:23:54.136Z,1.47
2023-01-09T21:26:25.033Z,1.44
2023-01-09T21:28:55.124Z,1.41
2023-01-09T21:31:25.540Z,1.39
2023-01-09T21:33:54.847Z,1.37
2023-01-09T21:36:22.968Z,1.36
2023-01-09T21:38:53.617Z,1.37
2023-01-09T21:41:40.432Z,1.39
2023-01-09T21:44:30.223Z,1.41
2023-01-09T21:47:00.097Z,1.45
2023-01-09T21:49:31.434Z,1.48
2023-01-09T21:51:59.546Z,1.51
2023-01-09T21:54:27.790Z,1.54
2023-01-09T21:56:58.008Z,1.57
2023-01-09T21:59:26.011Z,1.60
2023-01-09T22:01:54.002Z,1.63
2023-01-09T22:04:23.375Z,1.66
2023-01-09T22:06:51.433Z,1.69
2023-01-09T22:09:19.482Z,1.71
2023-01-09T22:11:47.793Z,1.73
2023-01-09T22:14:17.044Z,1.74
2023-01-09T22:16:45.658Z,1.77
2023-01-09T22:19:14.874Z,1.80
2023-01-09T22:21:42.923Z,1.83
2023-01-09T22:24:15.156Z,1.81
2023-01-09T22:26:43.507Z,1.80
2023-01-09T22:29:11.621Z,1.78
2023-01-09T22:31:40.259Z,1.76
2023-01-09T22:34:14.047Z,1.73
2023-01-09T22:36:42.273Z,1.70
2023-01-09T22:39:12.138Z,1.65
2023-01-09T22:41:40.470Z,1.60
2023-01-09T22:44:10.403Z,1.55
2023-01-09T22:46:39.149Z,1.51
2023-01-09T22:49:07.356Z,1.48
2023-01-09T22:51:35.361Z,1.46
2023-01-09T22:54:03.350Z,1.45
2023-01-09T22:56:32.402Z,1.44
2023-01-09T22:59:01.212Z,1.44
2023-01-09T23:01:29.394Z,1.45
2023-01-09T23:03:57.435Z,1.46
2023-01-09T23:06:25.834Z,1.47
2023-01-09T23:08:54.008Z,1.49
2023-01-09T23:11:44.108Z,1.51
2023-01-09T23:14:12.331Z,1.52
2023-01-09T23:16:40.531Z,1.55
2023-01-09T23:19:14.468Z,1.57
2023-01-09T23:21:43.369Z,1.59
2023-01-09T23:24:12.220Z,1.61
2023-01-09T23:26:40.205Z,1.62
2023-01-09T23:29:09.099Z,1.63
2023-01-09T23:31:37.696Z,1.63
2023-01-09T23:34:08.297Z,1.63
2023-01-09T23:36:36.424Z,1.62
2023-01-09T23:39:09.059Z,1.61
2023-01-09T23:41:56.359Z,1.60
2023-01-09T23:44:24.285Z,1.57
2023-01-09T23:46:52.616Z,1.54
2023-01-09T23:49:21.135Z,1.51
2023-01-09T23:51:49.313Z,1.46
2023-01-09T23:54:17.925Z,1.42
2023-01-09T23:56:45.968Z,1.37
2023-01-09T23:59:14.850Z,1.33
